x

South Hecate Strait (46185) Wave Buoy

3:00am - Mon 20th Nov 2017 All times are PST. -8 hours from GMT.

  • Sig Wave height 4.9ft
  • Peak Period 10s
  • Wind
    7mph, 11mph gusts
  • Sea Temp 50°f
  • Air Temp 44°f
  • Sea Pressure 1001.4mb
  • South Hecate Strait
  • South Hecate Strait

More Historic Weather Station data

Upgrade to MSW Pro to gain access to the past 30 days of data for over 8000 Wavebouys and Weather Stations around the globe.

Join

Comparision Forecast

View Surf forecast
   
Mon 11/20 3:00am 5ft 10s 7 11 mph 1001.4mb 50f 44f
2:00am 5.5ft 10s 7 9 mph 1001.2mb 50f 45f
1:00am 5ft 10s 4 7 mph 1000.6mb 50f 45f
12:00am 5.5ft 10s 4 7 mph 1000.5mb 50f 44f
Sun 11/19 11:00pm 6ft 10s 4 7 mph 1000.3mb 50f 44f
10:00pm 7ft 10s 2 4 mph 1000.3mb 50f 44f
9:00pm 7ft 10s 4 7 mph 999.9mb 50f 44f
8:00pm 7ft 10s 4 9 mph 999.6mb 50f 44f
7:00pm 7.5ft 10s 7 9 mph 999.2mb 50f 45f
6:00pm 7ft 10s 9 11 mph 999mb 50f 45f
5:00pm 7.5ft 10s 9 11 mph 998.8mb 50f 45f
4:00pm 7ft 10s 9 13 mph 998.5mb 50f 45f
3:00pm 8ft 10s 11 13 mph 998.5mb 50f 45f
2:00pm 7.5ft 10s 11 16 mph 998.4mb 50f 45f
1:00pm 7ft 10s 13 16 mph 998.6mb 50f 44f
12:00pm 7ft 10s 13 18 mph 999mb 50f 44f
11:00am 7ft 10s 13 16 mph 999.3mb 50f 44f
10:00am 7.5ft 10s 11 13 mph 999.6mb 50f 44f
9:00am 7ft 10s 11 13 mph 999.5mb 50f 43f
8:00am 8ft 10s 11 13 mph 999.2mb 50f 43f
7:00am 8.5ft 10s 11 13 mph 999mb 50f 45f
6:00am 8.5ft 10s 13 18 mph 998.8mb 50f 45f
5:00am 9ft 10s 16 20 mph 998.8mb 50f 45f
4:00am 9ft 11s 11 13 mph 998.6mb 50f 45f
3:00am 10ft 10s 11 16 mph 998.4mb 50f 45f
2:00am 10ft 10s 11 13 mph 998.5mb 50f 45f
1:00am 9ft 10s 9 11 mph 998.5mb 50f 46f
12:00am 10ft 10s 7 9 mph 998.5mb 50f 46f
Sat 11/18 11:00pm 10.5ft 10s 9 13 mph 999.1mb 50f 46f
10:00pm 12ft 9s 16 20 mph 998.9mb 50f 48f
9:00pm 13ft 9s 16 20 mph 999.2mb 50f 48f
8:00pm 13.5ft 10s 13 18 mph 999.8mb 50f 49f
7:00pm 15ft 10s 9 11 mph 999.8mb 50f 49f
6:00pm 14ft 9s 16 25 mph 998.8mb 50f 49f
5:00pm 15.5ft 9s 25 29 mph 998.3mb 50f 50f
4:00pm 13ft 8s 31 40 mph 998.3mb 50f 49f
3:00pm 11ft 8s 34 40 mph 998.9mb 50f 49f
2:00pm 9.5ft 7s 29 34 mph 1001.2mb 50f 48f
1:00pm 8ft 8s 29 36 mph 1003.1mb 50f 49f
12:00pm 9.5ft 8s 29 36 mph 1004.2mb 50f 49f
11:00am 8ft 7s 25 31 mph 1005.1mb 50f 49f
10:00am 10ft 8s 18 22 mph 1006.3mb 50f 47f
9:00am 9ft 8s 22 27 mph 1006.6mb 50f 47f
8:00am 8ft 8s 20 27 mph 1006.9mb 50f 47f
7:00am 9ft 7s 22 27 mph 1007.3mb 50f 48f
6:00am 9ft 8s 22 29 mph 1007.7mb 50f 48f
5:00am 9.5ft 8s 25 31 mph 1007.9mb 50f 49f
4:00am 9ft 8s 11 16 mph 1008.7mb 50f 46f
3:00am 8ft 7s 13 18 mph 1008.9mb 50f 47f
2:00am 8ft 8s 13 18 mph 1009.1mb 50f 47f
1:00am 10ft 8s 13 18 mph 1009.2mb 50f 47f
12:00am 10ft 7s 20 47 mph 1009.2mb 50f 47f
Fri 11/17 11:00pm 10.5ft 7s 29 34 mph 1008.7mb 50f 49f
10:00pm 10ft 7s 29 36 mph 1008.2mb 50f 49f
9:00pm 9ft 6s 31 40 mph 1007.9mb 50f 49f
8:00pm 9ft 6s 27 36 mph 1008.1mb 50f 49f
7:00pm 8ft 6s 29 36 mph 1008.4mb 50f 47f
6:00pm 7.5ft 6s 27 34 mph 1008.9mb 50f 47f
5:00pm 6.5ft 6s 25 29 mph 1009.3mb 50f 46f
4:00pm 6ft 6s 25 34 mph 1009.6mb 50f 46f
3:00pm 6ft 5s 25 29 mph 1009.7mb 50f 46f
2:00pm 5ft 5s 22 27 mph 1009.8mb 50f 45f
1:00pm 4.5ft 5s 22 29 mph 1009.9mb 50f 46f
12:00pm 3.5ft 4s 22 27 mph 1010.2mb 50f 46f
11:00am 3.5ft 14s 22 27 mph 1010.3mb 50f 44f
10:00am 2.5ft 8s 20 25 mph 1010.3mb 50f 43f
9:00am 2.5ft 8s 18 25 mph 1010.2mb 50f 44f
8:00am 2.5ft 8s 13 18 mph 1010.2mb 50f 43f
7:00am 2.5ft 8s 11 16 mph 1009.9mb 50f 43f
6:00am 2.5ft 8s 9 11 mph 1009.7mb 50f 42f
5:00am 2.5ft 8s 7 11 mph 1009.5mb 50f 42f
4:00am 2.5ft 15s 4 7 mph 1009.2mb 50f 41f
3:00am 2.5ft 14s 7 11 mph 1009.1mb 50f 41f
2:00am 3ft 5s 9 13 mph 1008.4mb 50f 41f
1:00am 2.5ft 9s 11 13 mph 1007.8mb 50f 41f
12:00am 3ft 8s 11 16 mph 1007.1mb 50f 41f
Thu 11/16 11:00pm 2.5ft 8s 9 13 mph 1006.4mb 50f 41f
10:00pm 2.5ft 8s 9 13 mph 1005.9mb 50f 41f
9:00pm 3ft 8s 4 9 mph 1005.1mb 50f 40f
8:00pm 3ft 8s 4 7 mph 1005.1mb 50f 40f
7:00pm 3ft 8s 9 13 mph 1004.8mb 50f 40f
6:00pm 3ft 8s 7 9 mph 1004.2mb 50f 40f
5:00pm 3.5ft 9s 7 7 mph 1003.7mb 50f 40f
4:00pm 3.5ft 9s 9 13 mph 1003mb 50f 40f
3:00pm 3.5ft 10s 7 9 mph 1002.6mb 50f 41f
2:00pm 3.5ft 10s 7 11 mph 1002.2mb 50f 41f
1:00pm 3.5ft 8s 7 9 mph 1001.7mb 50f 41f